Terminal Aerodrome Forecast
Issued by NWS

Home | Current Version | Previous Version | Text Only | Print | Product List | Glossary On
Versions: 1 2 3 4 5 6 7 8 9 10 11 12 13
000
FTUS43 KEAX 252300
TAFMKC
TAF
KMKC 252320Z 2600/2624 19015G24KT P6SM SKC
     FM260100 19010KT P6SM SCT150
     FM261500 20012G20KT P6SM SCT100=

USA.gov is the U.S. government's official web portal to all federal, state and local government web resources and services.